sensor_id;sensor_type;location;lat;lon;timestamp;pressure;altitude;pressure_sealevel;temperature;humidity
11099;BME280;12223;42.650;23.364;2024-01-27T00:13:21;95231.34;;;3.03;57.87
11099;BME280;12223;42.650;23.364;2024-01-27T00:15:46;95234.50;;;3.05;58.25
11099;BME280;12223;42.650;23.364;2024-01-27T00:18:11;95242.59;;;3.09;58.50
11099;BME280;12223;42.650;23.364;2024-01-27T00:20:37;95235.16;;;2.92;58.46
11099;BME280;12223;42.650;23.364;2024-01-27T00:23:03;95213.84;;;3.00;58.16
11099;BME280;12223;42.650;23.364;2024-01-27T00:25:29;95211.22;;;2.93;58.39
11099;BME280;12223;42.650;23.364;2024-01-27T00:27:54;95219.69;;;2.94;57.60
11099;BME280;12223;42.650;23.364;2024-01-27T00:30:20;95214.44;;;3.02;57.36
11099;BME280;12223;42.650;23.364;2024-01-27T00:32:45;95221.13;;;3.03;58.25
11099;BME280;12223;42.650;23.364;2024-01-27T00:35:11;95213.84;;;3.00;58.22
11099;BME280;12223;42.650;23.364;2024-01-27T00:37:40;95216.66;;;3.05;57.83
11099;BME280;12223;42.650;23.364;2024-01-27T00:40:08;95220.50;;;3.01;58.35
11099;BME280;12223;42.650;23.364;2024-01-27T00:42:33;95212.25;;;2.99;58.40
11099;BME280;12223;42.650;23.364;2024-01-27T00:44:59;95213.84;;;3.00;58.50
11099;BME280;12223;42.650;23.364;2024-01-27T00:47:24;95219.38;;;3.04;58.00
11099;BME280;12223;42.650;23.364;2024-01-27T00:49:50;95222.28;;;3.00;57.40
11099;BME280;12223;42.650;23.364;2024-01-27T00:52:15;95222.66;;;2.97;58.34
11099;BME280;12223;42.650;23.364;2024-01-27T00:54:40;95221.13;;;3.03;57.79
11099;BME280;12223;42.650;23.364;2024-01-27T00:57:06;95216.13;;;3.16;57.56
11099;BME280;12223;42.650;23.364;2024-01-27T00:59:31;95207.88;;;3.14;57.58
11099;BME280;12223;42.650;23.364;2024-01-27T01:01:57;95209.16;;;3.04;57.34
11099;BME280;12223;42.650;23.364;2024-01-27T01:04:22;95208.22;;;3.11;56.79
11099;BME280;12223;42.650;23.364;2024-01-27T01:06:47;95201.81;;;3.15;57.45
11099;BME280;12223;42.650;23.364;2024-01-27T01:09:13;95203.59;;;3.21;56.64
11099;BME280;12223;42.650;23.364;2024-01-27T01:11:38;95197.84;;;3.13;56.79
11099;BME280;12223;42.650;23.364;2024-01-27T01:14:04;95200.31;;;3.27;57.19
11099;BME280;12223;42.650;23.364;2024-01-27T01:16:29;95200.75;;;3.31;58.01
11099;BME280;12223;42.650;23.364;2024-01-27T01:18:55;95205.41;;;3.27;58.17
11099;BME280;12223;42.650;23.364;2024-01-27T01:21:20;95194.28;;;3.35;58.24
11099;BME280;12223;42.650;23.364;2024-01-27T01:23:45;95216.09;;;3.37;58.06
11099;BME280;12223;42.650;23.364;2024-01-27T01:26:11;95206.84;;;3.30;58.47
11099;BME280;12223;42.650;23.364;2024-01-27T01:28:36;95208.72;;;3.21;59.61
11099;BME280;12223;42.650;23.364;2024-01-27T01:31:02;95193.75;;;3.18;58.90
11099;BME280;12223;42.650;23.364;2024-01-27T01:33:27;95201.81;;;3.15;59.18
11099;BME280;12223;42.650;23.364;2024-01-27T01:35:53;95183.38;;;3.20;59.15
11099;BME280;12223;42.650;23.364;2024-01-27T01:38:18;95190.66;;;3.23;58.61
11099;BME280;12223;42.650;23.364;2024-01-27T01:40:44;95193.03;;;3.24;58.58
11099;BME280;12223;42.650;23.364;2024-01-27T01:43:10;95188.09;;;3.23;58.20
11099;BME280;12223;42.650;23.364;2024-01-27T01:45:38;95188.72;;;3.25;57.82
11099;BME280;12223;42.650;23.364;2024-01-27T01:48:05;95193.09;;;3.31;58.37
11099;BME280;12223;42.650;23.364;2024-01-27T01:50:31;95182.09;;;3.37;56.86
11099;BME280;12223;42.650;23.364;2024-01-27T01:52:57;95172.69;;;3.37;58.02
11099;BME280;12223;42.650;23.364;2024-01-27T01:55:23;95189.91;;;3.29;57.05
11099;BME280;12223;42.650;23.364;2024-01-27T01:57:49;95192.47;;;3.29;57.00
11099;BME280;12223;42.650;23.364;2024-01-27T02:00:15;95193.09;;;3.31;56.92
11099;BME280;12223;42.650;23.364;2024-01-27T02:02:45;95178.19;;;3.34;56.43
11099;BME280;12223;42.650;23.364;2024-01-27T02:05:12;95177.88;;;3.23;57.87
11099;BME280;12223;42.650;23.364;2024-01-27T02:07:38;95182.63;;;3.26;57.18
11099;BME280;12223;42.650;23.364;2024-01-27T02:10:05;95171.81;;;3.24;57.15
11099;BME280;12223;42.650;23.364;2024-01-27T02:12:30;95167.31;;;3.26;56.98
11099;BME280;12223;42.650;23.364;2024-01-27T02:14:56;95162.16;;;3.47;56.17
11099;BME280;12223;42.650;23.364;2024-01-27T02:17:21;95159.03;;;3.52;55.79
11099;BME280;12223;42.650;23.364;2024-01-27T02:19:47;95149.84;;;3.57;56.33
11099;BME280;12223;42.650;23.364;2024-01-27T02:22:12;95156.72;;;3.63;55.37
11099;BME280;12223;42.650;23.364;2024-01-27T02:24:37;95157.75;;;3.69;55.56
11099;BME280;12223;42.650;23.364;2024-01-27T02:27:03;95164.56;;;3.55;55.04
11099;BME280;12223;42.650;23.364;2024-01-27T02:29:28;95161.72;;;3.43;56.31
11099;BME280;12223;42.650;23.364;2024-01-27T02:31:54;95156.63;;;3.43;53.17
11099;BME280;12223;42.650;23.364;2024-01-27T02:34:20;95149.06;;;3.57;51.42
11099;BME280;12223;42.650;23.364;2024-01-27T02:36:45;95152.75;;;3.54;53.69
11099;BME280;12223;42.650;23.364;2024-01-27T02:39:11;95142.13;;;3.51;54.60
11099;BME280;12223;42.650;23.364;2024-01-27T02:41:36;95159.50;;;3.34;56.17
11099;BME280;12223;42.650;23.364;2024-01-27T02:44:05;95165.59;;;3.33;56.64
11099;BME280;12223;42.650;23.364;2024-01-27T02:46:30;95163.50;;;3.43;55.57
11099;BME280;12223;42.650;23.364;2024-01-27T02:48:55;95162.75;;;3.49;56.85
11099;BME280;12223;42.650;23.364;2024-01-27T02:51:21;95150.69;;;3.36;57.11
11099;BME280;12223;42.650;23.364;2024-01-27T02:53:46;95150.56;;;2.95;59.40
11099;BME280;12223;42.650;23.364;2024-01-27T02:56:12;95145.91;;;2.56;60.16
11099;BME280;12223;42.650;23.364;2024-01-27T02:58:37;95152.28;;;2.46;60.63
11099;BME280;12223;42.650;23.364;2024-01-27T03:01:03;95160.31;;;2.43;61.55
11099;BME280;12223;42.650;23.364;2024-01-27T03:03:28;95162.41;;;2.39;61.71
11099;BME280;12223;42.650;23.364;2024-01-27T03:05:54;95162.41;;;2.39;61.63
11099;BME280;12223;42.650;23.364;2024-01-27T03:08:19;95172.91;;;2.30;62.75
11099;BME280;12223;42.650;23.364;2024-01-27T03:10:45;95177.66;;;2.18;62.92
11099;BME280;12223;42.650;23.364;2024-01-27T03:13:10;95177.34;;;2.06;63.25
11099;BME280;12223;42.650;23.364;2024-01-27T03:15:36;95186.69;;;1.85;64.44
11099;BME280;12223;42.650;23.364;2024-01-27T03:18:03;95166.28;;;1.99;63.80
11099;BME280;12223;42.650;23.364;2024-01-27T03:20:28;95169.88;;;2.05;63.13
11099;BME280;12223;42.650;23.364;2024-01-27T03:22:56;95157.66;;;2.00;63.45
11099;BME280;12223;42.650;23.364;2024-01-27T03:25:21;95168.91;;;1.77;64.02
11099;BME280;12223;42.650;23.364;2024-01-27T03:27:47;95163.31;;;1.81;63.58
11099;BME280;12223;42.650;23.364;2024-01-27T03:30:12;95164.09;;;1.96;63.53
11099;BME280;12223;42.650;23.364;2024-01-27T03:32:38;95158.47;;;2.01;63.19
11099;BME280;12223;42.650;23.364;2024-01-27T03:35:04;95156.25;;;2.34;62.50
11099;BME280;12223;42.650;23.364;2024-01-27T03:37:29;95156.44;;;2.89;62.16
11099;BME280;12223;42.650;23.364;2024-01-27T03:39:54;95170.16;;;3.16;61.60
11099;BME280;12223;42.650;23.364;2024-01-27T03:42:21;95160.19;;;3.49;61.06
11099;BME280;12223;42.650;23.364;2024-01-27T03:44:46;95149.91;;;3.70;61.31
11099;BME280;12223;42.650;23.364;2024-01-27T03:47:13;95149.72;;;3.72;62.50
11099;BME280;12223;42.650;23.364;2024-01-27T03:49:39;95146.75;;;3.68;63.51
11099;BME280;12223;42.650;23.364;2024-01-27T03:52:04;95148.97;;;3.78;63.43
11099;BME280;12223;42.650;23.364;2024-01-27T03:54:30;95142.63;;;3.74;64.53
11099;BME280;12223;42.650;23.364;2024-01-27T03:56:56;95142.69;;;3.80;64.93
11099;BME280;12223;42.650;23.364;2024-01-27T03:59:21;95134.78;;;3.75;65.19
11099;BME280;12223;42.650;23.364;2024-01-27T04:01:47;95142.06;;;3.78;65.73
11099;BME280;12223;42.650;23.364;2024-01-27T04:04:12;95139.19;;;3.88;65.21
11099;BME280;12223;42.650;23.364;2024-01-27T04:06:39;95135.53;;;3.69;66.29
11099;BME280;12223;42.650;23.364;2024-01-27T04:09:05;95149.13;;;3.70;66.60
11099;BME280;12223;42.650;23.364;2024-01-27T04:11:34;95138.50;;;3.66;66.66
11099;BME280;12223;42.650;23.364;2024-01-27T04:14:00;95135.88;;;3.60;67.37
11099;BME280;12223;42.650;23.364;2024-01-27T04:16:27;95142.50;;;3.48;67.24
11099;BME280;12223;42.650;23.364;2024-01-27T04:18:52;95138.16;;;3.41;68.15
11099;BME280;12223;42.650;23.364;2024-01-27T04:21:18;95140.31;;;3.45;67.74
11099;BME280;12223;42.650;23.364;2024-01-27T04:23:43;95125.63;;;3.53;67.90
11099;BME280;12223;42.650;23.364;2024-01-27T04:26:08;95128.69;;;3.42;67.74
11099;BME280;12223;42.650;23.364;2024-01-27T04:28:35;95134.66;;;3.49;68.21
11099;BME280;12223;42.650;23.364;2024-01-27T04:31:01;95143.09;;;3.50;68.12
11099;BME280;12223;42.650;23.364;2024-01-27T04:33:26;95140.25;;;3.66;66.84
11099;BME280;12223;42.650;23.364;2024-01-27T04:35:52;95137.44;;;3.54;68.04
11099;BME280;12223;42.650;23.364;2024-01-27T04:38:17;95145.09;;;3.54;67.07
11099;BME280;12223;42.650;23.364;2024-01-27T04:40:43;95145.88;;;3.55;68.09
11099;BME280;12223;42.650;23.364;2024-01-27T04:43:08;95143.94;;;3.57;67.97
11099;BME280;12223;42.650;23.364;2024-01-27T04:45:33;95140.66;;;3.69;68.08
11099;BME280;12223;42.650;23.364;2024-01-27T04:47:59;95139.63;;;3.57;69.34
11099;BME280;12223;42.650;23.364;2024-01-27T04:50:26;95144.75;;;3.64;68.31
11099;BME280;12223;42.650;23.364;2024-01-27T04:52:51;95146.38;;;3.71;68.89
11099;BME280;12223;42.650;23.364;2024-01-27T04:55:17;95132.81;;;3.71;68.75
11099;BME280;12223;42.650;23.364;2024-01-27T04:57:42;95146.19;;;3.73;69.27
11099;BME280;12223;42.650;23.364;2024-01-27T05:00:08;95148.53;;;3.68;69.15
11099;BME280;12223;42.650;23.364;2024-01-27T05:02:39;95148.53;;;3.68;69.84
11099;BME280;12223;42.650;23.364;2024-01-27T05:05:06;95136.84;;;3.59;70.46
11099;BME280;12223;42.650;23.364;2024-01-27T05:07:32;95150.59;;;3.51;71.19
11099;BME280;12223;42.650;23.364;2024-01-27T05:09:57;95152.53;;;3.49;71.62
11099;BME280;12223;42.650;23.364;2024-01-27T05:12:22;95162.94;;;3.48;71.57
11099;BME280;12223;42.650;23.364;2024-01-27T05:14:48;95155.25;;;3.41;72.00
11099;BME280;12223;42.650;23.364;2024-01-27T05:17:13;95160.47;;;3.33;72.67
11099;BME280;12223;42.650;23.364;2024-01-27T05:19:39;95164.22;;;3.30;72.65
11099;BME280;12223;42.650;23.364;2024-01-27T05:22:04;95155.47;;;3.46;71.93
11099;BME280;12223;42.650;23.364;2024-01-27T05:24:30;95149.19;;;3.49;73.92
11099;BME280;12223;42.650;23.364;2024-01-27T05:26:56;95153.84;;;3.38;73.54
11099;BME280;12223;42.650;23.364;2024-01-27T05:29:21;95154.16;;;3.29;75.15
11099;BME280;12223;42.650;23.364;2024-01-27T05:31:47;95159.69;;;3.32;74.88
11099;BME280;12223;42.650;23.364;2024-01-27T05:34:13;95157.34;;;3.37;74.69
11099;BME280;12223;42.650;23.364;2024-01-27T05:36:38;95152.25;;;3.37;74.91
11099;BME280;12223;42.650;23.364;2024-01-27T05:39:04;95162.63;;;3.29;75.33
11099;BME280;12223;42.650;23.364;2024-01-27T05:41:30;95159.56;;;3.40;75.55
11099;BME280;12223;42.650;23.364;2024-01-27T05:43:56;95166.03;;;3.36;75.47
11099;BME280;12223;42.650;23.364;2024-01-27T05:46:24;95159.88;;;3.31;76.08
11099;BME280;12223;42.650;23.364;2024-01-27T05:48:50;95171.44;;;3.27;77.73
11099;BME280;12223;42.650;23.364;2024-01-27T05:51:18;95157.50;;;3.29;76.82
11099;BME280;12223;42.650;23.364;2024-01-27T05:53:44;95161.88;;;3.35;76.43
11099;BME280;12223;42.650;23.364;2024-01-27T05:56:09;95167.00;;;3.35;77.95
11099;BME280;12223;42.650;23.364;2024-01-27T05:58:35;95173.16;;;3.20;78.08
11099;BME280;12223;42.650;23.364;2024-01-27T06:01:00;95186.84;;;3.12;78.65
11099;BME280;12223;42.650;23.364;2024-01-27T06:03:26;95175.56;;;3.00;78.52
11099;BME280;12223;42.650;23.364;2024-01-27T06:05:51;95180.13;;;3.05;79.18
11099;BME280;12223;42.650;23.364;2024-01-27T06:08:17;95182.47;;;3.06;79.00
11099;BME280;12223;42.650;23.364;2024-01-27T06:10:43;95184.53;;;2.96;79.71
11099;BME280;12223;42.650;23.364;2024-01-27T06:13:08;95193.19;;;2.95;79.22
11099;BME280;12223;42.650;23.364;2024-01-27T06:15:34;95192.50;;;2.86;79.26
11099;BME280;12223;42.650;23.364;2024-01-27T06:17:59;95191.84;;;2.99;79.26
11099;BME280;12223;42.650;23.364;2024-01-27T06:20:25;95203.25;;;2.82;79.91
11099;BME280;12223;42.650;23.364;2024-01-27T06:22:50;95215.06;;;2.83;80.62
11099;BME280;12223;42.650;23.364;2024-01-27T06:25:17;95210.66;;;2.77;80.77
11099;BME280;12223;42.650;23.364;2024-01-27T06:27:43;95211.38;;;2.71;80.89
11099;BME280;12223;42.650;23.364;2024-01-27T06:30:09;95205.44;;;2.64;80.92
11099;BME280;12223;42.650;23.364;2024-01-27T06:32:35;95222.25;;;2.58;81.35
11099;BME280;12223;42.650;23.364;2024-01-27T06:35:01;95214.97;;;2.55;82.04
11099;BME280;12223;42.650;23.364;2024-01-27T06:37:26;95224.78;;;2.73;80.56
11099;BME280;12223;42.650;23.364;2024-01-27T06:39:52;95224.84;;;2.79;80.08
11099;BME280;12223;42.650;23.364;2024-01-27T06:42:17;95224.66;;;3.02;79.17
11099;BME280;12223;42.650;23.364;2024-01-27T06:44:42;95230.00;;;3.07;79.33
11099;BME280;12223;42.650;23.364;2024-01-27T06:47:08;95217.38;;;3.20;79.86
11099;BME280;12223;42.650;23.364;2024-01-27T06:49:33;95229.00;;;3.51;77.62
11099;BME280;12223;42.650;23.364;2024-01-27T06:51:59;95229.53;;;3.74;76.92
11099;BME280;12223;42.650;23.364;2024-01-27T06:54:25;95248.94;;;3.96;75.32
11099;BME280;12223;42.650;23.364;2024-01-27T06:56:51;95249.25;;;4.14;74.75
11099;BME280;12223;42.650;23.364;2024-01-27T06:59:16;95238.47;;;4.19;73.77
11099;BME280;12223;42.650;23.364;2024-01-27T07:01:48;95233.03;;;4.35;72.75
11099;BME280;12223;42.650;23.364;2024-01-27T07:04:15;95229.72;;;4.48;71.63
11099;BME280;12223;42.650;23.364;2024-01-27T07:06:40;95229.19;;;4.59;71.33
11099;BME280;12223;42.650;23.364;2024-01-27T07:09:06;95221.34;;;4.74;68.90
11099;BME280;12223;42.650;23.364;2024-01-27T07:11:35;95224.50;;;4.82;69.53
11099;BME280;12223;42.650;23.364;2024-01-27T07:14:01;95230.28;;;4.97;68.99
11099;BME280;12223;42.650;23.364;2024-01-27T07:16:27;95214.91;;;5.04;66.85
11099;BME280;12223;42.650;23.364;2024-01-27T07:18:52;95213.31;;;5.09;67.18
11099;BME280;12223;42.650;23.364;2024-01-27T07:21:17;95204.06;;;5.08;65.47
11099;BME280;12223;42.650;23.364;2024-01-27T07:23:43;95213.94;;;5.11;66.52
11099;BME280;12223;42.650;23.364;2024-01-27T07:26:09;95211.94;;;5.13;64.81
11099;BME280;12223;42.650;23.364;2024-01-27T07:28:35;95237.97;;;5.10;65.96
11099;BME280;12223;42.650;23.364;2024-01-27T07:31:00;95244.84;;;4.97;66.23
11099;BME280;12223;42.650;23.364;2024-01-27T07:33:26;95253.50;;;5.09;65.78
11099;BME280;12223;42.650;23.364;2024-01-27T07:35:51;95249.59;;;5.06;65.24
11099;BME280;12223;42.650;23.364;2024-01-27T07:38:17;95273.41;;;5.13;63.58
11099;BME280;12223;42.650;23.364;2024-01-27T07:40:42;95290.34;;;5.01;63.92
11099;BME280;12223;42.650;23.364;2024-01-27T07:43:07;95284.81;;;4.98;63.61
11099;BME280;12223;42.650;23.364;2024-01-27T07:45:33;95297.84;;;4.96;62.61
11099;BME280;12223;42.650;23.364;2024-01-27T07:47:58;95319.44;;;4.87;62.25
11099;BME280;12223;42.650;23.364;2024-01-27T07:50:24;95318.25;;;4.83;63.57
11099;BME280;12223;42.650;23.364;2024-01-27T07:52:49;95315.69;;;4.83;63.08
11099;BME280;12223;42.650;23.364;2024-01-27T07:55:15;95303.22;;;4.67;63.58
11099;BME280;12223;42.650;23.364;2024-01-27T07:57:42;95311.94;;;4.79;63.42
11099;BME280;12223;42.650;23.364;2024-01-27T08:00:08;95313.53;;;4.80;63.09
11099;BME280;12223;42.650;23.364;2024-01-27T08:02:33;95308.22;;;4.82;62.04
11099;BME280;12223;42.650;23.364;2024-01-27T08:04:59;95322.56;;;4.76;62.87
11099;BME280;12223;42.650;23.364;2024-01-27T08:07:24;95317.25;;;4.71;63.26
11099;BME280;12223;42.650;23.364;2024-01-27T08:09:50;95313.72;;;4.79;62.35
11099;BME280;12223;42.650;23.364;2024-01-27T08:12:15;95315.53;;;4.91;60.86
11099;BME280;12223;42.650;23.364;2024-01-27T08:14:41;95314.72;;;4.84;61.93
11099;BME280;12223;42.650;23.364;2024-01-27T08:17:06;95302.53;;;4.86;61.29
11099;BME280;12223;42.650;23.364;2024-01-27T08:19:32;95298.63;;;4.97;62.16
11099;BME280;12223;42.650;23.364;2024-01-27T08:21:58;95308.44;;;4.93;61.33
11099;BME280;12223;42.650;23.364;2024-01-27T08:24:24;95335.41;;;4.89;61.79
11099;BME280;12223;42.650;23.364;2024-01-27T08:26:50;95297.63;;;5.04;60.92
11099;BME280;12223;42.650;23.364;2024-01-27T08:29:15;95283.09;;;5.25;60.29
11099;BME280;12223;42.650;23.364;2024-01-27T08:31:42;95314.88;;;5.43;59.88
11099;BME280;12223;42.650;23.364;2024-01-27T08:34:07;95297.53;;;5.52;59.25
11099;BME280;12223;42.650;23.364;2024-01-27T08:36:34;95280.19;;;5.67;57.83
11099;BME280;12223;42.650;23.364;2024-01-27T08:38:59;95288.84;;;5.66;57.22
11099;BME280;12223;42.650;23.364;2024-01-27T08:41:25;95292.41;;;5.72;57.50
11099;BME280;12223;42.650;23.364;2024-01-27T08:43:51;95283.94;;;6.04;56.48
11099;BME280;12223;42.650;23.364;2024-01-27T08:46:16;95268.50;;;6.37;55.62
11099;BME280;12223;42.650;23.364;2024-01-27T08:48:45;95276.63;;;6.14;56.04
11099;BME280;12223;42.650;23.364;2024-01-27T08:51:11;95285.97;;;6.60;55.17
11099;BME280;12223;42.650;23.364;2024-01-27T08:53:38;95277.00;;;6.82;53.26
11099;BME280;12223;42.650;23.364;2024-01-27T08:56:03;95253.28;;;6.80;53.81
11099;BME280;12223;42.650;23.364;2024-01-27T08:58:30;95249.28;;;6.91;54.96
11099;BME280;12223;42.650;23.364;2024-01-27T09:00:56;95257.19;;;6.51;55.86
11099;BME280;12223;42.650;23.364;2024-01-27T09:03:21;95246.31;;;6.43;56.33
11099;BME280;12223;42.650;23.364;2024-01-27T09:05:47;95241.72;;;6.64;54.57
11099;BME280;12223;42.650;23.364;2024-01-27T09:08:12;95235.59;;;6.65;54.90
11099;BME280;12223;42.650;23.364;2024-01-27T09:10:38;95221.31;;;6.76;53.53
11099;BME280;12223;42.650;23.364;2024-01-27T09:13:04;95228.75;;;6.53;54.17
11099;BME280;12223;42.650;23.364;2024-01-27T09:15:30;95239.50;;;6.23;54.94
11099;BME280;12223;42.650;23.364;2024-01-27T09:17:55;95243.19;;;6.47;54.61
11099;BME280;12223;42.650;23.364;2024-01-27T09:20:21;95239.03;;;6.46;53.58
11099;BME280;12223;42.650;23.364;2024-01-27T09:22:50;95244.44;;;6.18;53.40
11099;BME280;12223;42.650;23.364;2024-01-27T09:25:16;95244.81;;;6.22;53.94
11099;BME280;12223;42.650;23.364;2024-01-27T09:27:41;95240.75;;;5.94;55.13
11099;BME280;12223;42.650;23.364;2024-01-27T09:30:08;95224.16;;;5.97;55.24
11099;BME280;12223;42.650;23.364;2024-01-27T09:32:33;95240.69;;;6.21;54.49
11099;BME280;12223;42.650;23.364;2024-01-27T09:34:59;95258.84;;;6.26;55.36
11099;BME280;12223;42.650;23.364;2024-01-27T09:37:24;95266.19;;;6.09;55.24
11099;BME280;12223;42.650;23.364;2024-01-27T09:39:49;95252.72;;;6.27;54.14
11099;BME280;12223;42.650;23.364;2024-01-27T09:42:20;95261.69;;;6.62;54.46
11099;BME280;12223;42.650;23.364;2024-01-27T09:44:48;95269.78;;;6.59;52.46
11099;BME280;12223;42.650;23.364;2024-01-27T09:47:14;95266.59;;;6.64;53.12
11099;BME280;12223;42.650;23.364;2024-01-27T09:49:40;95297.84;;;6.54;52.96
11099;BME280;12223;42.650;23.364;2024-01-27T09:52:09;95296.38;;;5.94;56.17
11099;BME280;12223;42.650;23.364;2024-01-27T09:54:35;95297.56;;;5.91;55.67
11099;BME280;12223;42.650;23.364;2024-01-27T09:57:01;95306.22;;;6.17;55.48
11099;BME280;12223;42.650;23.364;2024-01-27T09:59:27;95312.06;;;6.50;54.30
11099;BME280;12223;42.650;23.364;2024-01-27T10:01:57;95303.03;;;6.34;53.94
11099;BME280;12223;42.650;23.364;2024-01-27T10:04:24;95316.91;;;6.01;54.37
11099;BME280;12223;42.650;23.364;2024-01-27T10:07:02;95327.94;;;6.08;56.01
11099;BME280;12223;42.650;23.364;2024-01-27T10:09:28;95315.47;;;6.31;54.27
11099;BME280;12223;42.650;23.364;2024-01-27T10:11:55;95321.19;;;5.80;56.95
11099;BME280;12223;42.650;23.364;2024-01-27T10:14:22;95321.41;;;6.31;54.69
11099;BME280;12223;42.650;23.364;2024-01-27T10:16:48;95329.50;;;6.22;55.21
11099;BME280;12223;42.650;23.364;2024-01-27T10:19:18;95332.66;;;6.37;54.60
11099;BME280;12223;42.650;23.364;2024-01-27T10:21:45;95336.16;;;6.62;53.88
11099;BME280;12223;42.650;23.364;2024-01-27T10:24:11;95349.97;;;6.61;54.12
11099;BME280;12223;42.650;23.364;2024-01-27T10:26:37;95346.00;;;6.65;52.37
11099;BME280;12223;42.650;23.364;2024-01-27T10:29:02;95344.88;;;6.35;53.80
11099;BME280;12223;42.650;23.364;2024-01-27T10:31:33;95333.63;;;6.36;53.17
11099;BME280;12223;42.650;23.364;2024-01-27T10:33:59;95363.84;;;6.08;55.36
11099;BME280;12223;42.650;23.364;2024-01-27T10:39:48;95353.19;;;5.91;55.64
11099;BME280;12223;42.650;23.364;2024-01-27T10:42:13;95344.91;;;6.02;54.94
11099;BME280;12223;42.650;23.364;2024-01-27T10:45:05;95358.13;;;5.99;56.63
11099;BME280;12223;42.650;23.364;2024-01-27T10:47:46;95369.38;;;6.05;55.56
11099;BME280;12223;42.650;23.364;2024-01-27T10:50:13;95345.50;;;5.91;56.67
11099;BME280;12223;42.650;23.364;2024-01-27T10:52:40;95359.28;;;5.83;54.89
11099;BME280;12223;42.650;23.364;2024-01-27T10:55:09;95345.88;;;6.01;54.88
11099;BME280;12223;42.650;23.364;2024-01-27T10:57:37;95355.38;;;6.20;55.51
11099;BME280;12223;42.650;23.364;2024-01-27T11:00:36;95331.69;;;6.25;54.01
11099;BME280;12223;42.650;23.364;2024-01-27T11:03:02;95363.66;;;6.03;56.38
11099;BME280;12223;42.650;23.364;2024-01-27T11:05:42;95367.00;;;5.96;55.69
11099;BME280;12223;42.650;23.364;2024-01-27T11:08:10;95371.31;;;5.83;57.41
11099;BME280;12223;42.650;23.364;2024-01-27T11:10:37;95366.00;;;5.78;55.87
11099;BME280;12223;42.650;23.364;2024-01-27T11:13:04;95354.28;;;5.36;57.95
11099;BME280;12223;42.650;23.364;2024-01-27T11:18:42;95381.84;;;5.34;57.83
11099;BME280;12223;42.650;23.364;2024-01-27T11:24:29;95388.00;;;5.46;57.95
11099;BME280;12223;42.650;23.364;2024-01-27T11:27:05;95374.31;;;5.12;60.17
11099;BME280;12223;42.650;23.364;2024-01-27T11:29:31;95390.97;;;5.43;59.10
11099;BME280;12223;42.650;23.364;2024-01-27T11:32:00;95392.56;;;5.44;58.31
11099;BME280;12223;42.650;23.364;2024-01-27T11:34:26;95402.69;;;5.11;59.90
11099;BME280;12223;42.650;23.364;2024-01-27T11:36:52;95402.16;;;5.22;59.44
11099;BME280;12223;42.650;23.364;2024-01-27T11:39:24;95408.78;;;5.10;59.34
11099;BME280;12223;42.650;23.364;2024-01-27T11:41:51;95417.44;;;5.09;59.39
11099;BME280;12223;42.650;23.364;2024-01-27T11:47:22;95398.59;;;4.82;60.93
11099;BME280;12223;42.650;23.364;2024-01-27T11:53:09;95405.72;;;4.87;59.51
11099;BME280;12223;42.650;23.364;2024-01-27T12:01:47;95437.22;;;4.81;60.32
11099;BME280;12223;42.650;23.364;2024-01-27T12:04:12;95408.09;;;4.88;59.43
11099;BME280;12223;42.650;23.364;2024-01-27T12:07:09;95406.94;;;4.91;59.50
11099;BME280;12223;42.650;23.364;2024-01-27T12:12:57;95418.47;;;5.14;57.57
11099;BME280;12223;42.650;23.364;2024-01-27T12:18:54;95410.19;;;5.12;56.88
11099;BME280;12223;42.650;23.364;2024-01-27T12:21:20;95412.38;;;5.29;56.15
11099;BME280;12223;42.650;23.364;2024-01-27T12:27:07;95420.56;;;5.52;57.01
11099;BME280;12223;42.650;23.364;2024-01-27T12:29:33;95403.84;;;5.69;54.80
11099;BME280;12223;42.650;23.364;2024-01-27T12:31:59;95415.66;;;5.70;55.12
11099;BME280;12223;42.650;23.364;2024-01-27T12:37:30;95432.56;;;5.45;54.13
11099;BME280;12223;42.650;23.364;2024-01-27T12:39:55;95417.41;;;5.56;55.24
11099;BME280;12223;42.650;23.364;2024-01-27T12:42:21;95406.97;;;5.58;55.02
11099;BME280;12223;42.650;23.364;2024-01-27T12:48:09;95423.34;;;5.57;54.55
11099;BME280;12223;42.650;23.364;2024-01-27T12:51:02;95437.19;;;5.69;54.57
11099;BME280;12223;42.650;23.364;2024-01-27T12:56:49;95451.31;;;5.52;55.17
11099;BME280;12223;42.650;23.364;2024-01-27T12:59:21;95442.91;;;5.24;55.55
11099;BME280;12223;42.650;23.364;2024-01-27T13:05:08;95439.16;;;5.20;55.56
11099;BME280;12223;42.650;23.364;2024-01-27T13:07:48;95450.47;;;5.32;56.24
11099;BME280;12223;42.650;23.364;2024-01-27T13:10:13;95448.13;;;5.37;54.63
11099;BME280;12223;42.650;23.364;2024-01-27T13:13:11;95442.22;;;5.43;54.63
11099;BME280;12223;42.650;23.364;2024-01-27T13:27:06;95471.31;;;5.29;52.56
11099;BME280;12223;42.650;23.364;2024-01-27T13:29:45;95448.94;;;5.03;53.21
11099;BME280;12223;42.650;23.364;2024-01-27T13:35:38;95449.41;;;5.20;51.76
11099;BME280;12223;42.650;23.364;2024-01-27T13:38:19;95449.63;;;5.25;51.03
11099;BME280;12223;42.650;23.364;2024-01-27T17:01:39;95648.47;;;3.17;52.71
11099;BME280;12223;42.650;23.364;2024-01-27T17:04:04;95642.22;;;3.19;52.21
11099;BME280;12223;42.650;23.364;2024-01-27T17:06:32;95637.41;;;3.24;52.32
11099;BME280;12223;42.650;23.364;2024-01-27T17:12:17;95625.59;;;3.23;51.47
11099;BME280;12223;42.650;23.364;2024-01-27T17:14:43;95638.63;;;3.28;51.98
11099;BME280;12223;42.650;23.364;2024-01-27T17:17:08;95634.28;;;3.14;51.39
11099;BME280;12223;42.650;23.364;2024-01-27T17:19:34;95629.50;;;3.11;52.24
11099;BME280;12223;42.650;23.364;2024-01-27T17:22:00;95634.88;;;3.02;52.74
11099;BME280;12223;42.650;23.364;2024-01-27T17:24:26;95636.03;;;2.99;52.95
11099;BME280;12223;42.650;23.364;2024-01-27T17:26:51;95622.03;;;2.95;53.26
11099;BME280;12223;42.650;23.364;2024-01-27T17:29:17;95635.91;;;2.92;53.40
11099;BME280;12223;42.650;23.364;2024-01-27T17:31:45;95648.56;;;2.86;52.92
11099;BME280;12223;42.650;23.364;2024-01-27T17:34:11;95643.41;;;2.94;52.81